Time,TemperatureF,DewpointF,PressureIn,WindDirection,WindDirectionDegrees,WindSpeedMPH,WindSpeedGustMPH,Humidity,HourlyPrecipIn,Conditions,Clouds,dailyrainin,SoftwareType,DateUTC
2013-02-10 00:00:00,31.6,24.6,30.17,SSE,163,10.0,15.0,75,0.00,,,0.00,Wunderground v.1.15,2013-02-10 05:00:00,
2013-02-10 00:05:00,31.6,24.6,30.17,SE,131,9.0,17.0,75,0.00,,,0.00,Wunderground v.1.15,2013-02-10 05:05:00,
2013-02-10 00:10:00,31.5,24.5,30.17,SE,126,6.0,10.0,75,0.00,,,0.00,Wunderground v.1.15,2013-02-10 05:10:00,
2013-02-10 00:15:00,31.5,24.5,30.17,SSE,166,10.0,14.0,75,0.00,,,0.00,Wunderground v.1.15,2013-02-10 05:15:00,
2013-02-10 00:20:00,31.5,24.5,30.16,SSE,153,10.0,14.0,75,0.00,,,0.00,Wunderground v.1.15,2013-02-10 05:20:00,
2013-02-10 00:25:00,31.5,24.5,30.16,SE,145,8.0,15.0,75,0.00,,,0.00,Wunderground v.1.15,2013-02-10 05:25:00,
2013-02-10 00:30:00,31.6,24.6,30.17,SSE,165,4.0,8.0,75,0.00,,,0.00,Wunderground v.1.15,2013-02-10 05:30:00,
2013-02-10 00:35:00,31.5,24.5,30.16,SSE,159,12.0,14.0,75,0.00,,,0.00,Wunderground v.1.15,2013-02-10 05:35:00,
2013-02-10 00:40:00,31.5,24.5,30.16,SSE,153,10.0,11.0,75,0.00,,,0.00,Wunderground v.1.15,2013-02-10 05:40:00,
2013-02-10 00:45:00,31.5,24.5,30.16,South,170,13.0,13.0,75,0.00,,,0.00,Wunderground v.1.15,2013-02-10 05:45:00,
2013-02-10 00:50:00,31.5,24.2,30.16,South,169,7.0,9.0,74,0.00,,,0.00,Wunderground v.1.15,2013-02-10 05:50:00,
2013-02-10 00:55:00,31.4,24.1,30.16,SSE,157,7.0,12.0,74,0.00,,,0.00,Wunderground v.1.15,2013-02-10 05:55:00,
2013-02-10 01:00:00,31.4,24.1,30.16,SSE,149,8.0,9.0,74,0.00,,,0.00,Wunderground v.1.15,2013-02-10 06:00:00,
2013-02-10 01:05:00,31.4,24.1,30.16,SSE,168,7.0,13.0,74,0.00,,,0.00,Wunderground v.1.15,2013-02-10 06:05:00,
2013-02-10 01:10:00,31.6,23.9,30.16,SE,136,12.0,12.0,73,0.00,,,0.00,Wunderground v.1.15,2013-02-10 06:10:00,
2013-02-10 01:15:00,31.5,23.8,30.16,SSE,161,9.0,12.0,73,0.00,,,0.00,Wunderground v.1.15,2013-02-10 06:15:00,
2013-02-10 01:20:00,31.6,23.9,30.16,SSE,155,5.0,8.0,73,0.00,,,0.00,Wunderground v.1.15,2013-02-10 06:20:00,
2013-02-10 01:25:00,31.5,23.8,30.16,SSE,162,7.0,9.0,73,0.00,,,0.00,Wunderground v.1.15,2013-02-10 06:25:00,
2013-02-10 01:30:00,31.4,24.1,30.15,South,170,10.0,11.0,74,0.00,,,0.00,Wunderground v.1.15,2013-02-10 06:30:00,
2013-02-10 01:35:00,31.4,24.1,30.15,SSE,151,9.0,11.0,74,0.00,,,0.00,Wunderground v.1.15,2013-02-10 06:35:00,
2013-02-10 01:40:00,31.3,24.0,30.15,SSE,165,5.0,9.0,74,0.00,,,0.00,Wunderground v.1.15,2013-02-10 06:40:00,
2013-02-10 01:45:00,31.4,23.7,30.15,SE,142,6.0,10.0,73,0.00,,,0.00,Wunderground v.1.15,2013-02-10 06:45:00,
2013-02-10 01:50:00,31.2,23.5,30.15,SSE,155,5.0,7.0,73,0.00,,,0.00,Wunderground v.1.15,2013-02-10 06:50:00,
2013-02-10 01:55:00,31.1,23.8,30.15,South,175,5.0,9.0,74,0.00,,,0.00,Wunderground v.1.15,2013-02-10 06:55:00,
2013-02-10 02:00:00,31.0,23.7,30.15,SSE,147,6.0,6.0,74,0.00,,,0.00,Wunderground v.1.15,2013-02-10 07:00:00,
2013-02-10 02:05:00,31.0,23.4,30.15,South,173,3.0,9.0,73,0.00,,,0.00,Wunderground v.1.15,2013-02-10 07:05:00,
2013-02-10 02:10:00,30.8,23.5,30.15,SSE,161,2.0,4.0,74,0.00,,,0.00,Wunderground v.1.15,2013-02-10 07:10:00,
2013-02-10 02:15:00,30.7,23.4,30.15,SE,144,4.0,7.0,74,0.00,,,0.00,Wunderground v.1.15,2013-02-10 07:15:00,
2013-02-10 02:20:00,30.7,23.4,30.16,SSE,162,3.0,4.0,74,0.00,,,0.00,Wunderground v.1.15,2013-02-10 07:20:00,
2013-02-10 02:25:00,30.7,23.4,30.15,SE,146,5.0,7.0,74,0.00,,,0.00,Wunderground v.1.15,2013-02-10 07:25:00,
2013-02-10 02:30:00,30.6,23.3,30.15,SSE,156,5.0,8.0,74,0.00,,,0.00,Wunderground v.1.15,2013-02-10 07:30:00,
2013-02-10 02:35:00,30.6,23.3,30.15,South,178,2.0,8.0,74,0.00,,,0.00,Wunderground v.1.15,2013-02-10 07:35:00,
2013-02-10 02:40:00,30.5,23.2,30.15,SSE,156,3.0,4.0,74,0.00,,,0.00,Wunderground v.1.15,2013-02-10 07:40:00,
2013-02-10 02:45:00,30.5,23.2,30.15,SSE,160,3.0,5.0,74,0.00,,,0.00,Wunderground v.1.15,2013-02-10 07:45:00,
2013-02-10 02:50:00,30.4,23.1,30.15,ESE,113,5.0,6.0,74,0.00,,,0.00,Wunderground v.1.15,2013-02-10 07:50:00,
2013-02-10 02:55:00,30.2,22.9,30.15,SE,130,4.0,6.0,74,0.00,,,0.00,Wunderground v.1.15,2013-02-10 07:55:00,
2013-02-10 03:00:00,30.0,22.7,30.15,SSE,150,3.0,4.0,74,0.00,,,0.00,Wunderground v.1.15,2013-02-10 08:00:00,
2013-02-10 03:05:00,29.9,22.9,30.15,SSE,148,2.0,7.0,75,0.00,,,0.00,Wunderground v.1.15,2013-02-10 08:05:00,
2013-02-10 03:10:00,29.7,22.7,30.15,SSE,158,4.0,5.0,75,0.00,,,0.00,Wunderground v.1.15,2013-02-10 08:10:00,
2013-02-10 03:15:00,29.5,22.6,30.15,SSE,153,4.0,8.0,75,0.00,,,0.00,Wunderground v.1.15,2013-02-10 08:15:00,
2013-02-10 03:20:00,29.4,22.8,30.15,SE,146,3.0,5.0,76,0.00,,,0.00,Wunderground v.1.15,2013-02-10 08:20:00,
2013-02-10 03:25:00,29.6,23.0,30.15,SSE,153,4.0,7.0,76,0.00,,,0.00,Wunderground v.1.15,2013-02-10 08:25:00,
2013-02-10 03:30:00,29.8,22.8,30.15,SSE,156,5.0,5.0,75,0.00,,,0.00,Wunderground v.1.15,2013-02-10 08:30:00,
2013-02-10 03:35:00,29.9,22.9,30.14,SSE,161,6.0,8.0,75,0.00,,,0.00,Wunderground v.1.15,2013-02-10 08:35:00,
2013-02-10 03:40:00,30.1,23.1,30.14,SE,131,5.0,7.0,75,0.00,,,0.00,Wunderground v.1.15,2013-02-10 08:40:00,
2013-02-10 03:45:00,30.1,23.1,30.14,SSE,150,4.0,8.0,75,0.00,,,0.00,Wunderground v.1.15,2013-02-10 08:45:00,
2013-02-10 03:50:00,30.1,23.1,30.14,SSE,159,5.0,7.0,75,0.00,,,0.00,Wunderground v.1.15,2013-02-10 08:50:00,
2013-02-10 03:55:00,30.2,23.2,30.13,SSE,149,6.0,9.0,75,0.00,,,0.00,Wunderground v.1.15,2013-02-10 08:55:00,
2013-02-10 04:00:00,30.3,23.6,30.13,SSE,165,4.0,6.0,76,0.00,,,0.00,Wunderground v.1.15,2013-02-10 09:00:00,
2013-02-10 04:05:00,30.5,23.5,30.13,SSE,155,7.0,11.0,75,0.00,,,0.00,Wunderground v.1.15,2013-02-10 09:05:00,
2013-02-10 04:10:00,30.7,23.7,30.12,SE,137,5.0,8.0,75,0.00,,,0.00,Wunderground v.1.15,2013-02-10 09:10:00,
2013-02-10 04:15:00,30.8,23.8,30.12,SE,138,10.0,11.0,75,0.00,,,0.00,Wunderground v.1.15,2013-02-10 09:15:00,
2013-02-10 04:20:00,30.8,23.8,30.12,South,177,6.0,7.0,75,0.00,,,0.00,Wunderground v.1.15,2013-02-10 09:20:00,
2013-02-10 04:25:00,30.9,23.9,30.12,SSE,159,6.0,12.0,75,0.00,,,0.00,Wunderground v.1.15,2013-02-10 09:25:00,
2013-02-10 04:30:00,30.8,23.8,30.11,SE,146,8.0,8.0,75,0.00,,,0.00,Wunderground v.1.15,2013-02-10 09:30:00,
2013-02-10 04:35:00,30.8,24.1,30.11,SSE,154,8.0,10.0,76,0.00,,,0.00,Wunderground v.1.15,2013-02-10 09:35:00,
2013-02-10 04:40:00,30.8,24.1,30.11,SSE,156,5.0,6.0,76,0.00,,,0.00,Wunderground v.1.15,2013-02-10 09:40:00,
2013-02-10 04:45:00,30.8,23.8,30.11,SSE,167,7.0,9.0,75,0.00,,,0.00,Wunderground v.1.15,2013-02-10 09:45:00,
2013-02-10 04:50:00,30.7,24.0,30.11,SE,130,5.0,7.0,76,0.00,,,0.00,Wunderground v.1.15,2013-02-10 09:50:00,
2013-02-10 04:55:00,30.6,23.9,30.11,SSE,161,5.0,10.0,76,0.00,,,0.00,Wunderground v.1.15,2013-02-10 09:55:00,
2013-02-10 05:00:00,30.5,23.8,30.11,SSE,148,6.0,9.0,76,0.00,,,0.00,Wunderground v.1.15,2013-02-10 10:00:00,
2013-02-10 05:05:00,30.7,24.0,30.11,SSE,154,5.0,14.0,76,0.00,,,0.00,Wunderground v.1.15,2013-02-10 10:05:00,
2013-02-10 05:10:00,30.6,23.9,30.11,South,178,5.0,8.0,76,0.00,,,0.00,Wunderground v.1.15,2013-02-10 10:10:00,
2013-02-10 05:15:00,30.7,24.0,30.10,SSE,157,9.0,11.0,76,0.00,,,0.00,Wunderground v.1.15,2013-02-10 10:15:00,
2013-02-10 05:20:00,30.8,24.1,30.10,SSE,156,10.0,10.0,76,0.00,,,0.00,Wunderground v.1.15,2013-02-10 10:20:00,
2013-02-10 05:25:00,31.0,24.3,30.10,SSE,157,7.0,12.0,76,0.00,,,0.00,Wunderground v.1.15,2013-02-10 10:25:00,
2013-02-10 05:30:00,31.1,24.4,30.10,South,170,6.0,11.0,76,0.00,,,0.00,Wunderground v.1.15,2013-02-10 10:30:00,
2013-02-10 05:35:00,31.1,24.4,30.10,South,174,8.0,11.0,76,0.00,,,0.00,Wunderground v.1.15,2013-02-10 10:35:00,
2013-02-10 05:40:00,31.2,24.5,30.10,SE,134,4.0,8.0,76,0.00,,,0.00,Wunderground v.1.15,2013-02-10 10:40:00,
2013-02-10 05:45:00,31.2,24.5,30.09,SE,137,3.0,10.0,76,0.00,,,0.00,Wunderground v.1.15,2013-02-10 10:45:00,
2013-02-10 05:50:00,31.2,24.5,30.09,ESE,123,3.0,6.0,76,0.00,,,0.00,Wunderground v.1.15,2013-02-10 10:50:00,
2013-02-10 05:55:00,31.2,24.5,30.08,SE,138,5.0,9.0,76,0.00,,,0.00,Wunderground v.1.15,2013-02-10 10:55:00,
2013-02-10 06:00:00,31.3,24.6,30.08,SSE,148,4.0,10.0,76,0.00,,,0.00,Wunderground v.1.15,2013-02-10 11:00:00,
2013-02-10 06:05:00,31.4,24.7,30.08,SE,128,7.0,11.0,76,0.00,,,0.00,Wunderground v.1.15,2013-02-10 11:05:00,
2013-02-10 06:10:00,31.6,24.9,30.07,SE,140,7.0,10.0,76,0.00,,,0.00,Wunderground v.1.15,2013-02-10 11:10:00,
2013-02-10 06:15:00,31.9,25.2,30.07,SSE,153,11.0,14.0,76,0.00,,,0.00,Wunderground v.1.15,2013-02-10 11:15:00,
2013-02-10 06:20:00,32.2,25.5,30.07,SSE,150,6.0,9.0,76,0.00,,,0.00,Wunderground v.1.15,2013-02-10 11:20:00,
2013-02-10 06:25:00,32.3,25.6,30.06,SSE,154,3.0,13.0,76,0.00,,,0.00,Wunderground v.1.15,2013-02-10 11:25:00,
2013-02-10 06:30:00,32.4,25.7,30.07,SSE,152,7.0,8.0,76,0.00,,,0.00,Wunderground v.1.15,2013-02-10 11:30:00,
2013-02-10 06:35:00,32.4,25.7,30.07,SSE,164,7.0,14.0,76,0.00,,,0.00,Wunderground v.1.15,2013-02-10 11:35:00,
2013-02-10 06:40:00,32.5,25.8,30.06,SSE,163,5.0,11.0,76,0.00,,,0.00,Wunderground v.1.15,2013-02-10 11:40:00,
2013-02-10 06:45:00,32.5,26.1,30.06,SSE,157,10.0,11.0,77,0.00,,,0.00,Wunderground v.1.15,2013-02-10 11:45:00,
2013-02-10 06:50:00,32.7,26.3,30.06,SSE,155,8.0,12.0,77,0.00,,,0.00,Wunderground v.1.15,2013-02-10 11:50:00,
2013-02-10 06:56:00,32.9,26.5,30.06,SSE,157,4.0,12.0,77,0.00,,,0.00,Wunderground v.1.15,2013-02-10 11:56:00,
2013-02-10 07:01:00,33.1,26.7,30.06,SSE,159,3.0,9.0,77,0.00,,,0.00,Wunderground v.1.15,2013-02-10 12:01:00,
2013-02-10 07:06:00,33.3,26.9,30.06,SE,134,8.0,10.0,77,0.00,,,0.00,Wunderground v.1.15,2013-02-10 12:06:00,
2013-02-10 07:11:00,33.6,27.2,30.07,South,187,6.0,7.0,77,0.00,,,0.00,Wunderground v.1.15,2013-02-10 12:11:00,
2013-02-10 07:16:00,33.7,27.3,30.07,SSE,165,3.0,10.0,77,0.00,,,0.00,Wunderground v.1.15,2013-02-10 12:16:00,
2013-02-10 07:21:00,33.8,27.4,30.06,SSE,163,5.0,7.0,77,0.00,,,0.00,Wunderground v.1.15,2013-02-10 12:21:00,
2013-02-10 07:26:00,33.8,27.4,30.06,SSE,147,6.0,8.0,77,0.00,,,0.00,Wunderground v.1.15,2013-02-10 12:26:00,
2013-02-10 07:31:00,33.9,27.8,30.06,SE,126,5.0,8.0,78,0.00,,,0.00,Wunderground v.1.15,2013-02-10 12:31:00,
2013-02-10 07:36:00,34.0,27.9,30.06,SSE,149,8.0,13.0,78,0.00,,,0.00,Wunderground v.1.15,2013-02-10 12:36:00,
2013-02-10 07:41:00,34.2,28.4,30.06,SSE,164,8.0,10.0,79,0.00,,,0.00,Wunderground v.1.15,2013-02-10 12:41:00,
2013-02-10 07:46:00,34.4,28.6,30.05,South,169,7.0,13.0,79,0.00,,,0.00,Wunderground v.1.15,2013-02-10 12:46:00,
2013-02-10 07:51:00,34.5,28.7,30.05,SSE,167,5.0,7.0,79,0.00,,,0.00,Wunderground v.1.15,2013-02-10 12:51:00,
2013-02-10 07:56:00,34.6,28.8,30.05,SE,144,5.0,11.0,79,0.00,,,0.00,Wunderground v.1.15,2013-02-10 12:56:00,
2013-02-10 08:01:00,34.5,28.7,30.05,SE,132,6.0,6.0,79,0.00,,,0.00,Wunderground v.1.15,2013-02-10 13:01:00,
2013-02-10 08:06:00,34.5,28.7,30.04,SSE,158,3.0,10.0,79,0.00,,,0.00,Wunderground v.1.15,2013-02-10 13:06:00,
2013-02-10 08:11:00,34.5,28.7,30.04,SSE,150,8.0,8.0,79,0.00,,,0.00,Wunderground v.1.15,2013-02-10 13:11:00,
2013-02-10 08:16:00,34.6,28.8,30.04,SSE,158,6.0,11.0,79,0.00,,,0.00,Wunderground v.1.15,2013-02-10 13:16:00,
2013-02-10 08:21:00,34.8,29.0,30.03,SSE,152,5.0,12.0,79,0.00,,,0.00,Wunderground v.1.15,2013-02-10 13:21:00,
2013-02-10 08:26:00,34.8,29.0,30.03,ESE,109,9.0,12.0,79,0.00,,,0.00,Wunderground v.1.15,2013-02-10 13:26:00,
2013-02-10 08:31:00,34.8,29.0,30.02,SSE,148,5.0,9.0,79,0.00,,,0.00,Wunderground v.1.15,2013-02-10 13:31:00,
2013-02-10 08:36:00,34.8,29.3,30.02,SE,124,6.0,11.0,80,0.00,,,0.00,Wunderground v.1.15,2013-02-10 13:36:00,
2013-02-10 08:41:00,34.8,29.3,30.02,SE,140,11.0,11.0,80,0.00,,,0.00,Wunderground v.1.15,2013-02-10 13:41:00,
2013-02-10 08:46:00,34.9,29.4,30.02,SSE,153,6.0,14.0,80,0.00,,,0.00,Wunderground v.1.15,2013-02-10 13:46:00,
2013-02-10 08:51:00,35.0,29.5,30.01,SSE,166,6.0,10.0,80,0.00,,,0.00,Wunderground v.1.15,2013-02-10 13:51:00,
2013-02-10 08:56:00,35.1,29.6,30.02,SSE,163,7.0,12.0,80,0.00,,,0.00,Wunderground v.1.15,2013-02-10 13:56:00,
2013-02-10 09:01:00,35.1,29.2,30.01,ESE,123,5.0,9.0,79,0.00,,,0.00,Wunderground v.1.15,2013-02-10 14:01:00,
2013-02-10 09:06:00,35.1,29.2,30.02,ESE,117,9.0,11.0,79,0.00,,,0.00,Wunderground v.1.15,2013-02-10 14:06:00,
2013-02-10 09:11:00,35.2,29.3,30.00,East,89,8.0,11.0,79,0.00,,,0.00,Wunderground v.1.15,2013-02-10 14:11:00,
2013-02-10 09:16:00,35.3,29.4,30.01,ESE,123,8.0,11.0,79,0.00,,,0.00,Wunderground v.1.15,2013-02-10 14:16:00,
2013-02-10 09:21:00,35.3,29.4,30.01,SSE,153,6.0,12.0,79,0.00,,,0.00,Wunderground v.1.15,2013-02-10 14:21:00,
2013-02-10 09:26:00,35.4,29.5,30.00,SSE,160,4.0,12.0,79,0.00,,,0.00,Wunderground v.1.15,2013-02-10 14:26:00,
2013-02-10 09:31:00,35.4,29.5,29.99,East,98,9.0,9.0,79,0.00,,,0.00,Wunderground v.1.15,2013-02-10 14:31:00,
2013-02-10 09:36:00,35.5,29.3,29.99,SSE,163,2.0,10.0,78,0.00,,,0.00,Wunderground v.1.15,2013-02-10 14:36:00,
2013-02-10 09:41:00,35.6,29.7,30.00,SE,138,4.0,9.0,79,0.00,,,0.00,Wunderground v.1.15,2013-02-10 14:41:00,
2013-02-10 09:46:00,35.6,29.7,30.00,SSE,156,7.0,12.0,79,0.00,,,0.00,Wunderground v.1.15,2013-02-10 14:46:00,
2013-02-10 09:51:00,35.7,29.5,30.01,SSE,152,5.0,9.0,78,0.00,,,0.00,Wunderground v.1.15,2013-02-10 14:51:00,
2013-02-10 09:56:00,35.8,29.6,30.01,East,101,6.0,10.0,78,0.00,,,0.00,Wunderground v.1.15,2013-02-10 14:56:00,
2013-02-10 10:01:00,35.9,30.0,30.00,ESE,119,8.0,8.0,79,0.00,,,0.00,Wunderground v.1.15,2013-02-10 15:01:00,
2013-02-10 10:06:00,36.0,30.1,29.99,ESE,123,4.0,11.0,79,0.00,,,0.00,Wunderground v.1.15,2013-02-10 15:06:00,
2013-02-10 10:11:00,36.2,30.3,29.99,SSE,150,5.0,6.0,79,0.00,,,0.00,Wunderground v.1.15,2013-02-10 15:11:00,
2013-02-10 10:16:00,36.4,30.5,30.00,ESE,123,12.0,12.0,79,0.00,,,0.00,Wunderground v.1.15,2013-02-10 15:16:00,
2013-02-10 10:21:00,36.5,30.6,30.01,SSE,162,9.0,12.0,79,0.00,,,0.00,Wunderground v.1.15,2013-02-10 15:21:00,
2013-02-10 10:26:00,36.7,30.5,30.00,SE,138,8.0,14.0,78,0.00,,,0.00,Wunderground v.1.15,2013-02-10 15:26:00,
2013-02-10 10:31:00,36.8,30.6,29.99,SE,130,4.0,12.0,78,0.00,,,0.00,Wunderground v.1.15,2013-02-10 15:31:00,
2013-02-10 10:36:00,36.9,30.7,29.98,SE,143,4.0,12.0,78,0.00,,,0.00,Wunderground v.1.15,2013-02-10 15:36:00,
2013-02-10 10:41:00,36.9,30.4,29.98,SE,143,12.0,15.0,77,0.00,,,0.00,Wunderground v.1.15,2013-02-10 15:41:00,
2013-02-10 10:46:00,37.1,30.6,29.99,SE,133,9.0,15.0,77,0.00,,,0.00,Wunderground v.1.15,2013-02-10 15:46:00,
2013-02-10 10:51:00,37.2,30.7,29.98,SE,144,13.0,15.0,77,0.00,,,0.00,Wunderground v.1.15,2013-02-10 15:51:00,
2013-02-10 10:56:00,37.5,30.9,29.98,SE,129,15.0,17.0,77,0.00,,,0.00,Wunderground v.1.15,2013-02-10 15:56:00,
2013-02-10 11:01:00,37.7,30.8,29.97,SE,140,8.0,12.0,76,0.00,,,0.00,Wunderground v.1.15,2013-02-10 16:01:00,
2013-02-10 11:06:00,37.7,30.5,29.97,SE,144,10.0,15.0,75,0.00,,,0.00,Wunderground v.1.15,2013-02-10 16:06:00,
2013-02-10 11:11:00,37.8,30.6,29.97,SE,142,9.0,10.0,75,0.00,,,0.00,Wunderground v.1.15,2013-02-10 16:11:00,
2013-02-10 11:16:00,38.0,30.8,29.97,SSE,152,12.0,15.0,75,0.00,,,0.00,Wunderground v.1.15,2013-02-10 16:16:00,
2013-02-10 11:21:00,38.2,30.6,29.96,SSE,154,9.0,14.0,74,0.00,,,0.00,Wunderground v.1.15,2013-02-10 16:21:00,
2013-02-10 11:26:00,38.4,30.8,29.95,South,178,12.0,19.0,74,0.00,,,0.00,Wunderground v.1.15,2013-02-10 16:26:00,
2013-02-10 11:31:00,38.6,31.0,29.95,SE,143,9.0,13.0,74,0.00,,,0.00,Wunderground v.1.15,2013-02-10 16:31:00,
2013-02-10 11:36:00,38.8,31.2,29.94,SE,128,13.0,17.0,74,0.00,,,0.00,Wunderground v.1.15,2013-02-10 16:36:00,
2013-02-10 11:41:00,39.1,31.5,29.93,SE,142,15.0,15.0,74,0.00,,,0.00,Wunderground v.1.15,2013-02-10 16:41:00,
2013-02-10 11:46:00,39.3,32.0,29.93,South,171,13.0,21.0,75,0.00,,,0.00,Wunderground v.1.15,2013-02-10 16:46:00,
2013-02-10 11:51:00,39.7,32.1,29.92,South,173,4.0,10.0,74,0.00,,,0.00,Wunderground v.1.15,2013-02-10 16:51:00,
2013-02-10 11:56:00,39.8,32.2,29.92,South,171,7.0,18.0,74,0.00,,,0.00,Wunderground v.1.15,2013-02-10 16:56:00,
2013-02-10 12:01:00,39.9,32.3,29.92,SSE,159,10.0,11.0,74,0.00,,,0.00,Wunderground v.1.15,2013-02-10 17:01:00,
2013-02-10 12:06:00,39.8,32.2,29.92,SE,146,9.0,18.0,74,0.00,,,0.00,Wunderground v.1.15,2013-02-10 17:06:00,
2013-02-10 12:11:00,39.8,32.5,29.91,SSE,162,8.0,15.0,75,0.00,,,0.00,Wunderground v.1.15,2013-02-10 17:11:00,
2013-02-10 12:16:00,40.0,32.7,29.91,SSE,156,7.0,15.0,75,0.00,,,0.00,Wunderground v.1.15,2013-02-10 17:16:00,
2013-02-10 12:21:00,40.3,33.0,29.90,South,173,7.0,11.0,75,0.00,,,0.00,Wunderground v.1.15,2013-02-10 17:21:00,
2013-02-10 12:26:00,40.4,33.1,29.89,SSE,151,15.0,17.0,75,0.00,,,0.00,Wunderground v.1.15,2013-02-10 17:26:00,
2013-02-10 12:31:00,40.6,33.3,29.89,SE,142,15.0,15.0,75,0.00,,,0.00,Wunderground v.1.15,2013-02-10 17:31:00,
2013-02-10 12:36:00,40.6,33.3,29.88,SE,144,7.0,16.0,75,0.00,,,0.00,Wunderground v.1.15,2013-02-10 17:36:00,
2013-02-10 12:41:00,40.8,33.5,29.87,SE,134,8.0,12.0,75,0.00,,,0.00,Wunderground v.1.15,2013-02-10 17:41:00,
2013-02-10 12:46:00,41.1,33.8,29.87,SSE,164,8.0,13.0,75,0.00,,,0.00,Wunderground v.1.15,2013-02-10 17:46:00,
2013-02-10 12:51:00,41.3,34.0,29.86,ESE,123,14.0,16.0,75,0.00,,,0.00,Wunderground v.1.15,2013-02-10 17:51:00,
2013-02-10 12:56:00,41.5,34.2,29.85,SSE,158,9.0,17.0,75,0.00,,,0.00,Wunderground v.1.15,2013-02-10 17:56:00,
2013-02-10 13:01:00,41.4,34.1,29.85,ESE,121,5.0,13.0,75,0.00,,,0.00,Wunderground v.1.15,2013-02-10 18:01:00,
2013-02-10 13:06:00,41.5,34.2,29.85,SSE,164,9.0,15.0,75,0.00,,,0.00,Wunderground v.1.15,2013-02-10 18:06:00,
2013-02-10 13:11:00,41.6,34.3,29.85,SSE,167,9.0,14.0,75,0.00,,,0.00,Wunderground v.1.15,2013-02-10 18:11:00,
2013-02-10 13:16:00,41.5,34.2,29.85,SSE,161,10.0,14.0,75,0.00,,,0.00,Wunderground v.1.15,2013-02-10 18:16:00,
2013-02-10 13:21:00,41.5,34.2,29.84,SSE,155,6.0,10.0,75,0.00,,,0.00,Wunderground v.1.15,2013-02-10 18:21:00,
2013-02-10 13:26:00,41.8,34.5,29.84,SSE,159,9.0,16.0,75,0.00,,,0.00,Wunderground v.1.15,2013-02-10 18:26:00,
2013-02-10 13:31:00,41.8,34.5,29.83,SE,144,13.0,15.0,75,0.00,,,0.00,Wunderground v.1.15,2013-02-10 18:31:00,
2013-02-10 13:36:00,42.0,34.6,29.83,SSE,164,9.0,19.0,75,0.00,,,0.00,Wunderground v.1.15,2013-02-10 18:36:00,
2013-02-10 13:41:00,42.1,34.7,29.82,SSE,159,17.0,17.0,75,0.00,,,0.00,Wunderground v.1.15,2013-02-10 18:41:00,
2013-02-10 13:46:00,42.1,34.7,29.82,SSE,155,13.0,17.0,75,0.00,,,0.00,Wunderground v.1.15,2013-02-10 18:46:00,
2013-02-10 13:51:00,42.2,34.8,29.82,SSE,154,10.0,11.0,75,0.00,,,0.00,Wunderground v.1.15,2013-02-10 18:51:00,
2013-02-10 13:56:00,42.0,34.6,29.82,SSE,149,12.0,18.0,75,0.00,,,0.00,Wunderground v.1.15,2013-02-10 18:56:00,
2013-02-10 14:01:00,42.0,35.0,29.81,SE,138,7.0,17.0,76,0.00,,,0.00,Wunderground v.1.15,2013-02-10 19:01:00,
2013-02-10 14:06:00,42.0,35.0,29.81,SSE,149,12.0,17.0,76,0.00,,,0.00,Wunderground v.1.15,2013-02-10 19:06:00,
2013-02-10 14:11:00,42.1,35.1,29.80,SSE,152,12.0,13.0,76,0.00,,,0.00,Wunderground v.1.15,2013-02-10 19:11:00,
2013-02-10 14:16:00,42.2,34.8,29.79,SSE,155,9.0,19.0,75,0.00,,,0.00,Wunderground v.1.15,2013-02-10 19:16:00,
2013-02-10 14:21:00,42.1,35.1,29.79,ESE,113,8.0,13.0,76,0.00,,,0.00,Wunderground v.1.15,2013-02-10 19:21:00,
2013-02-10 14:26:00,42.0,35.0,29.78,SSE,153,9.0,15.0,76,0.00,,,0.00,Wunderground v.1.15,2013-02-10 19:26:00,
2013-02-10 14:31:00,42.1,35.1,29.78,SE,134,9.0,12.0,76,0.00,,,0.00,Wunderground v.1.15,2013-02-10 19:31:00,
2013-02-10 14:36:00,42.2,35.2,29.78,SSE,161,10.0,21.0,76,0.00,,,0.00,Wunderground v.1.15,2013-02-10 19:36:00,
2013-02-10 14:41:00,42.2,35.2,29.77,SE,145,12.0,13.0,76,0.00,,,0.00,Wunderground v.1.15,2013-02-10 19:41:00,
2013-02-10 14:46:00,42.2,35.2,29.77,SSE,165,11.0,15.0,76,0.00,,,0.00,Wunderground v.1.15,2013-02-10 19:46:00,
2013-02-10 14:51:00,42.3,35.3,29.77,South,184,11.0,11.0,76,0.00,,,0.00,Wunderground v.1.15,2013-02-10 19:51:00,
2013-02-10 14:56:00,42.4,35.7,29.77,SSE,156,13.0,15.0,77,0.00,,,0.00,Wunderground v.1.15,2013-02-10 19:56:00,
2013-02-10 15:01:00,42.5,35.8,29.78,SSE,153,11.0,13.0,77,0.00,,,0.00,Wunderground v.1.15,2013-02-10 20:01:00,
2013-02-10 15:06:00,42.5,36.1,29.77,SE,140,12.0,16.0,78,0.00,,,0.00,Wunderground v.1.15,2013-02-10 20:06:00,
2013-02-10 15:11:00,42.2,36.5,29.76,SE,137,9.0,14.0,80,0.00,,,0.01,Wunderground v.1.15,2013-02-10 20:11:00,
2013-02-10 15:16:00,41.8,36.4,29.76,South,169,6.0,18.0,81,0.08,,,0.02,Wunderground v.1.15,2013-02-10 20:16:00,
2013-02-10 15:21:00,41.6,36.8,29.76,SE,130,10.0,18.0,83,0.08,,,0.02,Wunderground v.1.15,2013-02-10 20:21:00,
2013-02-10 15:26:00,41.3,36.8,29.75,SSE,152,13.0,18.0,84,0.22,,,0.04,Wunderground v.1.15,2013-02-10 20:26:00,
2013-02-10 15:31:00,40.9,37.0,29.74,SSE,155,5.0,18.0,86,0.17,,,0.06,Wunderground v.1.15,2013-02-10 20:31:00,
2013-02-10 15:36:00,40.8,37.2,29.73,SE,127,7.0,20.0,87,0.15,,,0.07,Wunderground v.1.15,2013-02-10 20:36:00,
2013-02-10 15:41:00,40.7,37.4,29.72,SSE,151,13.0,19.0,88,0.16,,,0.08,Wunderground v.1.15,2013-02-10 20:41:00,
2013-02-10 15:46:00,40.8,37.5,29.70,ESE,119,11.0,23.0,88,0.10,,,0.09,Wunderground v.1.15,2013-02-10 20:46:00,
2013-02-10 15:51:00,40.7,37.4,29.69,SE,132,7.0,19.0,88,0.13,,,0.10,Wunderground v.1.15,2013-02-10 20:51:00,
2013-02-10 15:56:00,40.8,37.8,29.70,SE,125,13.0,23.0,89,0.10,,,0.11,Wunderground v.1.15,2013-02-10 20:56:00,
2013-02-10 16:01:00,41.0,38.0,29.69,SSE,167,14.0,20.0,89,0.12,,,0.12,Wunderground v.1.15,2013-02-10 21:01:00,
2013-02-10 16:06:00,41.0,38.0,29.69,ENE,77,13.0,21.0,89,0.09,,,0.12,Wunderground v.1.15,2013-02-10 21:06:00,
2013-02-10 16:11:00,41.3,38.3,29.69,SSE,168,10.0,18.0,89,0.05,,,0.12,Wunderground v.1.15,2013-02-10 21:11:00,
2013-02-10 16:16:00,41.4,38.4,29.68,SSE,153,13.0,19.0,89,0.04,,,0.12,Wunderground v.1.15,2013-02-10 21:16:00,
2013-02-10 16:21:00,41.6,38.3,29.69,South,180,8.0,18.0,88,0.00,,,0.12,Wunderground v.1.15,2013-02-10 21:21:00,
2013-02-10 16:26:00,42.0,38.7,29.68,SSE,165,18.0,26.0,88,0.00,,,0.12,Wunderground v.1.15,2013-02-10 21:26:00,
2013-02-10 16:31:00,42.3,38.7,29.67,SSE,153,12.0,28.0,87,0.00,,,0.12,Wunderground v.1.15,2013-02-10 21:31:00,
2013-02-10 16:36:00,42.3,38.7,29.67,SSE,155,19.0,28.0,87,0.00,,,0.12,Wunderground v.1.15,2013-02-10 21:36:00,
2013-02-10 16:41:00,42.4,38.8,29.68,SSE,159,15.0,15.0,87,0.00,,,0.12,Wunderground v.1.15,2013-02-10 21:41:00,
2013-02-10 16:46:00,42.7,39.1,29.67,South,175,12.0,21.0,87,0.00,,,0.12,Wunderground v.1.15,2013-02-10 21:46:00,
2013-02-10 16:51:00,43.1,39.2,29.67,SSE,155,18.0,21.0,86,0.00,,,0.12,Wunderground v.1.15,2013-02-10 21:51:00,
2013-02-10 16:56:00,43.2,39.3,29.66,SE,138,11.0,23.0,86,0.00,,,0.12,Wunderground v.1.15,2013-02-10 21:56:00,
2013-02-10 17:01:00,43.1,39.2,29.66,SE,144,26.0,28.0,86,0.00,,,0.12,Wunderground v.1.15,2013-02-10 22:01:00,
2013-02-10 17:06:00,43.6,39.7,29.66,SSE,161,12.0,29.0,86,0.00,,,0.12,Wunderground v.1.15,2013-02-10 22:06:00,
2013-02-10 17:11:00,43.7,39.5,29.66,SSE,149,17.0,20.0,85,0.00,,,0.12,Wunderground v.1.15,2013-02-10 22:11:00,
2013-02-10 17:16:00,43.8,39.6,29.66,SSE,162,9.0,25.0,85,0.00,,,0.12,Wunderground v.1.15,2013-02-10 22:16:00,
2013-02-10 17:21:00,43.6,39.7,29.65,South,171,10.0,19.0,86,0.00,,,0.12,Wunderground v.1.15,2013-02-10 22:21:00,
2013-02-10 17:26:00,43.6,39.4,29.66,South,183,10.0,19.0,85,0.00,,,0.12,Wunderground v.1.15,2013-02-10 22:26:00,
2013-02-10 17:31:00,43.6,39.7,29.65,SSE,159,15.0,20.0,86,0.00,,,0.12,Wunderground v.1.15,2013-02-10 22:31:00,
2013-02-10 17:36:00,43.9,40.0,29.65,South,171,14.0,27.0,86,0.00,,,0.12,Wunderground v.1.15,2013-02-10 22:36:00,
2013-02-10 17:41:00,43.7,39.8,29.65,SSE,161,15.0,20.0,86,0.00,,,0.12,Wunderground v.1.15,2013-02-10 22:41:00,
2013-02-10 17:46:00,43.6,39.7,29.65,SE,137,12.0,27.0,86,0.00,,,0.12,Wunderground v.1.15,2013-02-10 22:46:00,
2013-02-10 17:51:00,43.5,39.9,29.65,SE,136,10.0,18.0,87,0.00,,,0.12,Wunderground v.1.15,2013-02-10 22:51:00,
2013-02-10 17:56:00,43.3,39.7,29.65,ESE,121,17.0,20.0,87,0.00,,,0.12,Wunderground v.1.15,2013-02-10 22:56:00,
2013-02-10 18:01:00,43.3,39.7,29.65,SSE,155,16.0,24.0,87,0.00,,,0.12,Wunderground v.1.15,2013-02-10 23:01:00,
2013-02-10 18:06:00,43.3,40.0,29.65,SSE,158,14.0,24.0,88,0.00,,,0.12,Wunderground v.1.15,2013-02-10 23:06:00,
2013-02-10 18:11:00,43.1,39.8,29.65,SSE,167,7.0,14.0,88,0.00,,,0.12,Wunderground v.1.15,2013-02-10 23:11:00,
2013-02-10 18:16:00,42.9,39.6,29.65,SSE,163,15.0,21.0,88,0.00,,,0.12,Wunderground v.1.15,2013-02-10 23:16:00,
2013-02-10 18:21:00,42.9,39.9,29.64,SSE,167,17.0,17.0,89,0.00,,,0.12,Wunderground v.1.15,2013-02-10 23:21:00,
2013-02-10 18:26:00,42.8,39.8,29.64,SSE,167,10.0,17.0,89,0.00,,,0.12,Wunderground v.1.15,2013-02-10 23:26:00,
2013-02-10 18:31:00,42.9,40.2,29.64,SSE,147,13.0,18.0,90,0.00,,,0.12,Wunderground v.1.15,2013-02-10 23:31:00,
2013-02-10 18:36:00,43.1,40.1,29.64,SSE,161,15.0,19.0,89,0.00,,,0.12,Wunderground v.1.15,2013-02-10 23:36:00,
2013-02-10 18:41:00,43.1,40.1,29.64,SSE,149,13.0,16.0,89,0.00,,,0.12,Wunderground v.1.15,2013-02-10 23:41:00,
2013-02-10 18:46:00,43.1,40.1,29.64,SSE,163,8.0,17.0,89,0.00,,,0.12,Wunderground v.1.15,2013-02-10 23:46:00,
2013-02-10 18:51:00,43.2,40.2,29.64,South,174,14.0,18.0,89,0.00,,,0.12,Wunderground v.1.15,2013-02-10 23:51:00,
2013-02-10 18:56:00,43.3,40.3,29.64,South,170,12.0,18.0,89,0.00,,,0.12,Wunderground v.1.15,2013-02-10 23:56:00,
2013-02-10 19:01:00,43.6,40.6,29.64,South,180,14.0,20.0,89,0.00,,,0.12,Wunderground v.1.15,2013-02-11 00:01:00,
2013-02-10 19:06:00,43.8,40.5,29.64,SSE,165,8.0,20.0,88,0.00,,,0.12,Wunderground v.1.15,2013-02-11 00:06:00,
2013-02-10 19:11:00,43.9,40.6,29.64,South,172,7.0,18.0,88,0.00,,,0.12,Wunderground v.1.15,2013-02-11 00:11:00,
2013-02-10 19:16:00,44.2,40.9,29.64,SSE,157,15.0,22.0,88,0.00,,,0.12,Wunderground v.1.15,2013-02-11 00:16:00,
2013-02-10 19:21:00,44.3,40.7,29.64,SSE,167,12.0,14.0,87,0.00,,,0.12,Wunderground v.1.15,2013-02-11 00:21:00,
2013-02-10 19:26:00,44.5,41.2,29.64,South,175,13.0,20.0,88,0.00,,,0.12,Wunderground v.1.15,2013-02-11 00:26:00,
2013-02-10 19:31:00,44.5,41.2,29.64,SSE,150,17.0,17.0,88,0.00,,,0.12,Wunderground v.1.15,2013-02-11 00:31:00,
2013-02-10 19:36:00,44.2,41.2,29.64,SSE,165,7.0,21.0,89,0.00,,,0.12,Wunderground v.1.15,2013-02-11 00:36:00,
2013-02-10 19:41:00,44.1,41.4,29.63,South,188,16.0,24.0,90,0.00,,,0.12,Wunderground v.1.15,2013-02-11 00:41:00,
2013-02-10 19:46:00,44.0,41.3,29.63,South,176,12.0,24.0,90,0.00,,,0.12,Wunderground v.1.15,2013-02-11 00:46:00,
2013-02-10 19:52:00,43.7,41.2,29.63,SSE,166,10.0,16.0,91,0.00,,,0.12,Wunderground v.1.15,2013-02-11 00:52:00,
2013-02-10 19:57:00,43.6,41.4,29.63,SE,145,13.0,18.0,92,0.00,,,0.12,Wunderground v.1.15,2013-02-11 00:57:00,
2013-02-10 20:01:00,43.6,41.4,29.64,South,188,11.0,21.0,92,0.00,,,0.12,Wunderground v.1.15,2013-02-11 01:01:00,
2013-02-10 20:07:00,43.5,41.3,29.64,South,180,12.0,21.0,92,0.00,,,0.12,Wunderground v.1.15,2013-02-11 01:07:00,
2013-02-10 20:12:00,43.5,41.6,29.64,South,184,12.0,17.0,93,0.00,,,0.12,Wunderground v.1.15,2013-02-11 01:12:00,
2013-02-10 20:17:00,43.6,41.7,29.63,South,175,11.0,19.0,93,0.00,,,0.12,Wunderground v.1.15,2013-02-11 01:17:00,
2013-02-10 20:22:00,43.5,41.3,29.63,South,190,9.0,15.0,92,0.00,,,0.12,Wunderground v.1.15,2013-02-11 01:22:00,
2013-02-10 20:27:00,43.2,41.0,29.63,South,178,8.0,16.0,92,0.00,,,0.12,Wunderground v.1.15,2013-02-11 01:27:00,
2013-02-10 20:32:00,43.3,41.4,29.63,South,177,9.0,17.0,93,0.00,,,0.12,Wunderground v.1.15,2013-02-11 01:32:00,
2013-02-10 20:37:00,43.4,41.5,29.63,SSE,148,16.0,20.0,93,0.00,,,0.12,Wunderground v.1.15,2013-02-11 01:37:00,
2013-02-10 20:42:00,43.4,41.5,29.63,SSE,167,12.0,12.0,93,0.00,,,0.12,Wunderground v.1.15,2013-02-11 01:42:00,
2013-02-10 20:47:00,43.6,41.7,29.62,SSE,162,9.0,17.0,93,0.00,,,0.12,Wunderground v.1.15,2013-02-11 01:47:00,
2013-02-10 20:52:00,43.7,41.8,29.62,SSW,194,13.0,14.0,93,0.00,,,0.12,Wunderground v.1.15,2013-02-11 01:52:00,
2013-02-10 20:57:00,43.9,42.0,29.62,South,172,9.0,18.0,93,0.00,,,0.12,Wunderground v.1.15,2013-02-11 01:57:00,
2013-02-10 21:02:00,44.1,42.2,29.62,SSW,197,9.0,17.0,93,0.00,,,0.12,Wunderground v.1.15,2013-02-11 02:02:00,
2013-02-10 21:07:00,44.1,42.2,29.62,South,180,7.0,18.0,93,0.00,,,0.12,Wunderground v.1.15,2013-02-11 02:07:00,
2013-02-10 21:12:00,44.3,42.4,29.61,SSE,155,11.0,15.0,93,0.00,,,0.12,Wunderground v.1.15,2013-02-11 02:12:00,
2013-02-10 21:17:00,44.5,42.6,29.61,South,169,10.0,18.0,93,0.00,,,0.12,Wunderground v.1.15,2013-02-11 02:17:00,
2013-02-10 21:22:00,44.7,42.5,29.61,SSW,207,13.0,13.0,92,0.00,,,0.12,Wunderground v.1.15,2013-02-11 02:22:00,
2013-02-10 21:27:00,44.7,42.5,29.61,South,186,6.0,16.0,92,0.00,,,0.12,Wunderground v.1.15,2013-02-11 02:27:00,
2013-02-10 21:32:00,44.8,42.9,29.61,SSE,168,13.0,21.0,93,0.00,,,0.12,Wunderground v.1.15,2013-02-11 02:32:00,
2013-02-10 21:37:00,44.8,42.6,29.61,SSE,168,11.0,21.0,92,0.00,,,0.12,Wunderground v.1.15,2013-02-11 02:37:00,
2013-02-10 21:42:00,45.1,42.9,29.60,South,170,11.0,15.0,92,0.00,,,0.12,Wunderground v.1.15,2013-02-11 02:42:00,
2013-02-10 21:47:00,45.1,42.9,29.60,SSW,194,10.0,18.0,92,0.00,,,0.12,Wunderground v.1.15,2013-02-11 02:47:00,
2013-02-10 21:52:00,45.2,43.0,29.60,SSW,199,10.0,19.0,92,0.00,,,0.12,Wunderground v.1.15,2013-02-11 02:52:00,
2013-02-10 21:57:00,45.5,43.3,29.60,SSW,192,11.0,19.0,92,0.00,,,0.12,Wunderground v.1.15,2013-02-11 02:57:00,
2013-02-10 22:02:00,45.5,43.3,29.59,SSE,161,10.0,14.0,92,0.00,,,0.12,Wunderground v.1.15,2013-02-11 03:02:00,
2013-02-10 22:07:00,45.5,43.3,29.60,South,183,9.0,18.0,92,0.00,,,0.12,Wunderground v.1.15,2013-02-11 03:07:00,
2013-02-10 22:12:00,45.6,43.4,29.59,South,188,9.0,14.0,92,0.00,,,0.12,Wunderground v.1.15,2013-02-11 03:12:00,
2013-02-10 22:17:00,45.7,43.5,29.58,SSE,157,8.0,18.0,92,0.00,,,0.12,Wunderground v.1.15,2013-02-11 03:17:00,
2013-02-10 22:22:00,45.8,43.6,29.58,South,171,11.0,15.0,92,0.00,,,0.12,Wunderground v.1.15,2013-02-11 03:22:00,
2013-02-10 22:27:00,45.9,43.7,29.58,SSE,157,10.0,17.0,92,0.00,,,0.12,Wunderground v.1.15,2013-02-11 03:27:00,
2013-02-10 22:32:00,46.1,43.9,29.58,South,189,11.0,18.0,92,0.00,,,0.12,Wunderground v.1.15,2013-02-11 03:32:00,
2013-02-10 22:37:00,46.1,43.9,29.58,South,173,8.0,18.0,92,0.00,,,0.12,Wunderground v.1.15,2013-02-11 03:37:00,
2013-02-10 22:42:00,46.2,44.0,29.57,South,179,11.0,14.0,92,0.00,,,0.12,Wunderground v.1.15,2013-02-11 03:42:00,
2013-02-10 22:47:00,46.3,44.1,29.57,South,179,12.0,17.0,92,0.00,,,0.12,Wunderground v.1.15,2013-02-11 03:47:00,
2013-02-10 22:52:00,46.4,44.2,29.57,South,180,8.0,15.0,92,0.00,,,0.12,Wunderground v.1.15,2013-02-11 03:52:00,
2013-02-10 22:57:00,46.4,44.2,29.57,SSE,166,11.0,15.0,92,0.00,,,0.12,Wunderground v.1.15,2013-02-11 03:57:00,
2013-02-10 23:02:00,46.3,43.8,29.57,South,169,7.0,11.0,91,0.00,,,0.12,Wunderground v.1.15,2013-02-11 04:02:00,
2013-02-10 23:07:00,46.4,44.2,29.56,South,177,7.0,16.0,92,0.00,,,0.12,Wunderground v.1.15,2013-02-11 04:07:00,
2013-02-10 23:12:00,46.4,44.2,29.57,SSE,155,11.0,16.0,92,0.00,,,0.12,Wunderground v.1.15,2013-02-11 04:12:00,
2013-02-10 23:17:00,46.5,44.3,29.56,SSE,159,11.0,18.0,92,0.00,,,0.12,Wunderground v.1.15,2013-02-11 04:17:00,
2013-02-10 23:22:00,46.7,44.2,29.56,South,177,18.0,18.0,91,0.00,,,0.12,Wunderground v.1.15,2013-02-11 04:22:00,
2013-02-10 23:27:00,46.6,44.1,29.56,SSE,154,10.0,18.0,91,0.00,,,0.12,Wunderground v.1.15,2013-02-11 04:27:00,
2013-02-10 23:32:00,46.8,44.6,29.56,South,187,11.0,14.0,92,0.00,,,0.12,Wunderground v.1.15,2013-02-11 04:32:00,
2013-02-10 23:37:00,46.8,44.3,29.56,SSW,195,7.0,14.0,91,0.00,,,0.12,Wunderground v.1.15,2013-02-11 04:37:00,
2013-02-10 23:42:00,46.6,44.1,29.56,SSW,202,10.0,15.0,91,0.00,,,0.12,Wunderground v.1.15,2013-02-11 04:42:00,
2013-02-10 23:47:00,46.6,44.1,29.57,SSW,211,7.0,17.0,91,0.00,,,0.12,Wunderground v.1.15,2013-02-11 04:47:00,
2013-02-10 23:52:00,47.0,44.5,29.57,South,181,10.0,18.0,91,0.00,,,0.12,Wunderground v.1.15,2013-02-11 04:52:00,
2013-02-10 23:57:00,47.7,44.9,29.57,SSW,194,15.0,19.0,90,0.00,,,0.00,Wunderground v.1.15,2013-02-11 04:57:00,